createdAt,value
2019-04-10T00:00:53.005Z,34.15
2019-04-10T00:03:27.826Z,32.67
2019-04-10T00:05:52.140Z,33.35
2019-04-10T00:08:20.650Z,32.73
2019-04-10T00:10:49.096Z,32.78
2019-04-10T00:13:18.417Z,32.80
2019-04-10T00:15:47.005Z,32.78
2019-04-10T00:18:15.910Z,32.23
2019-04-10T00:20:44.916Z,31.65
2019-04-10T00:23:13.422Z,32.70
2019-04-10T00:25:41.877Z,32.40
2019-04-10T00:28:11.504Z,32.38
2019-04-10T00:30:40.965Z,31.77
2019-04-10T00:33:10.254Z,31.50
2019-04-10T00:35:39.406Z,33.02
2019-04-10T00:38:09.208Z,30.97
2019-04-10T00:40:39.424Z,31.80
2019-04-10T00:43:08.679Z,32.20
2019-04-10T00:45:37.646Z,31.95
2019-04-10T00:48:06.027Z,32.73
2019-04-10T00:50:34.805Z,32.00
2019-04-10T00:53:03.830Z,32.83
2019-04-10T00:55:32.836Z,31.37
2019-04-10T00:58:02.268Z,32.87
2019-04-10T01:00:30.876Z,32.05
2019-04-10T01:02:59.402Z,31.42
2019-04-10T01:05:27.729Z,30.32
2019-04-10T01:07:56.381Z,31.45
2019-04-10T01:10:24.992Z,29.55
2019-04-10T01:12:54.218Z,30.43
2019-04-10T01:15:23.238Z,28.90
2019-04-10T01:17:52.761Z,30.85
2019-04-10T01:20:21.703Z,29.42
2019-04-10T01:22:50.504Z,30.57
2019-04-10T01:25:19.093Z,29.25
2019-04-10T01:27:48.060Z,28.73
2019-04-10T01:30:16.516Z,27.07
2019-04-10T01:32:45.224Z,29.55
2019-04-10T01:35:13.976Z,28.23
2019-04-10T01:37:51.263Z,28.70
2019-04-10T01:40:14.958Z,27.80
2019-04-10T01:42:44.494Z,28.20
2019-04-10T01:45:14.108Z,28.77
2019-04-10T01:47:43.291Z,29.15
2019-04-10T01:50:12.460Z,28.80
2019-04-10T01:52:41.460Z,29.07
2019-04-10T01:55:22.315Z,29.20
2019-04-10T02:00:11.083Z,28.60
2019-04-10T02:02:51.809Z,27.52
2019-04-10T02:05:20.708Z,28.07
2019-04-10T02:08:01.166Z,26.50
2019-04-10T02:10:20.420Z,27.87
2019-04-10T02:12:49.347Z,27.90
2019-04-10T02:15:17.918Z,27.45
2019-04-10T02:17:46.633Z,27.70
2019-04-10T02:20:15.037Z,27.85
2019-04-10T02:22:43.725Z,28.42
2019-04-10T02:25:12.066Z,28.05
2019-04-10T02:27:40.803Z,28.27
2019-04-10T02:30:12.044Z,29.07
2019-04-10T02:32:43.601Z,27.82
2019-04-10T02:35:13.154Z,27.13
2019-04-10T02:37:41.678Z,28.47
2019-04-10T02:40:10.951Z,26.85
2019-04-10T02:42:41.095Z,26.68
2019-04-10T02:45:12.310Z,27.02
2019-04-10T02:47:41.333Z,27.37
2019-04-10T02:50:11.913Z,26.77
2019-04-10T02:52:43.008Z,26.93
2019-04-10T02:55:11.907Z,27.90
2019-04-10T02:57:41.521Z,27.77
2019-04-10T03:00:12.747Z,29.05
2019-04-10T03:02:41.684Z,27.50
2019-04-10T03:05:10.985Z,28.05
2019-04-10T03:07:40.401Z,27.73
2019-04-10T03:10:23.294Z,27.30
2019-04-10T03:12:40.982Z,26.90
2019-04-10T03:15:12.231Z,28.57
2019-04-10T03:17:40.530Z,28.15
2019-04-10T03:20:09.885Z,29.02
2019-04-10T03:22:38.869Z,28.83
2019-04-10T03:25:08.714Z,29.23
2019-04-10T03:30:10.432Z,27.75
2019-04-10T03:32:50.250Z,27.93
2019-04-10T03:35:21.197Z,30.02
2019-04-10T03:37:50.749Z,29.92
2019-04-10T03:40:19.554Z,28.80
2019-04-10T03:42:49.606Z,29.70
2019-04-10T03:47:45.871Z,30.32
2019-04-10T03:50:14.384Z,29.40
2019-04-10T03:52:43.309Z,29.23
2019-04-10T03:55:12.525Z,30.50
2019-04-10T03:57:41.259Z,30.32
2019-04-10T04:00:09.935Z,30.10
2019-04-10T04:02:38.268Z,29.72
2019-04-10T04:05:06.679Z,31.17
2019-04-10T04:07:35.312Z,30.75
2019-04-10T04:10:06.139Z,30.70
2019-04-10T04:12:35.058Z,30.68
2019-04-10T04:15:03.951Z,30.15
2019-04-10T04:17:32.741Z,30.72
2019-04-10T04:20:02.516Z,31.20
2019-04-10T04:25:00.271Z,31.70
2019-04-10T04:27:29.250Z,31.37
2019-04-10T04:29:57.714Z,31.30
2019-04-10T04:32:25.988Z,30.82
2019-04-10T04:34:54.751Z,31.00
2019-04-10T04:37:23.120Z,31.33
2019-04-10T04:39:52.159Z,30.37
2019-04-10T04:42:20.675Z,32.93
2019-04-10T04:44:48.949Z,30.55
2019-04-10T04:47:18.193Z,31.40
2019-04-10T04:49:46.789Z,31.57
2019-04-10T04:52:16.176Z,31.33
2019-04-10T04:54:45.545Z,31.05
2019-04-10T04:57:14.892Z,31.27
2019-04-10T04:59:43.438Z,31.73
2019-04-10T05:02:12.226Z,30.08
2019-04-10T05:04:41.633Z,31.73
2019-04-10T05:07:10.427Z,30.43
2019-04-10T05:09:40.425Z,30.72
2019-04-10T05:12:09.323Z,31.40
2019-04-10T05:14:37.858Z,32.65
2019-04-10T05:17:06.406Z,31.80
2019-04-10T05:19:36.097Z,33.65
2019-04-10T05:22:05.904Z,33.95
2019-04-10T05:24:34.888Z,31.33
2019-04-10T05:27:03.576Z,31.33
2019-04-10T05:29:32.434Z,31.90
2019-04-10T05:32:01.078Z,35.40
2019-04-10T05:34:29.649Z,33.78
2019-04-10T05:36:58.837Z,33.28
2019-04-10T05:39:39.155Z,31.15
2019-04-10T05:44:25.630Z,29.87
2019-04-10T05:46:54.871Z,30.17
2019-04-10T05:49:24.585Z,29.75
2019-04-10T05:51:53.514Z,31.42
2019-04-10T05:54:22.571Z,32.05
2019-04-10T05:56:51.194Z,30.00
2019-04-10T05:59:19.678Z,31.73
2019-04-10T06:01:48.536Z,31.23
2019-04-10T06:04:17.183Z,30.62
2019-04-10T06:07:23.202Z,30.00
2019-04-10T06:09:55.836Z,30.02
2019-04-10T06:12:22.334Z,28.98
2019-04-10T06:14:50.743Z,30.40
2019-04-10T06:17:20.455Z,30.70
2019-04-10T06:19:49.273Z,31.40
2019-04-10T06:22:18.873Z,31.52
2019-04-10T06:24:47.461Z,32.73
2019-04-10T06:27:16.407Z,37.48
2019-04-10T06:29:46.274Z,34.73
2019-04-10T06:32:14.899Z,31.33
2019-04-10T06:34:43.374Z,34.35
2019-04-10T06:37:11.849Z,28.62
2019-04-10T06:39:42.049Z,28.77
2019-04-10T06:42:10.578Z,29.15
2019-04-10T06:44:39.140Z,29.15
2019-04-10T06:47:07.723Z,28.87
2019-04-10T06:49:36.602Z,28.87
2019-04-10T06:52:06.069Z,29.02
2019-04-10T06:54:34.639Z,28.07
2019-04-10T06:57:03.114Z,28.20
2019-04-10T06:59:32.442Z,27.10
2019-04-10T07:02:14.706Z,28.92
2019-04-10T07:04:42.849Z,27.95
2019-04-10T07:07:08.816Z,29.40
2019-04-10T07:09:33.717Z,29.32
2019-04-10T07:12:04.199Z,27.58
2019-04-10T07:14:36.219Z,27.93
2019-04-10T07:17:06.754Z,29.12
2019-04-10T07:19:34.434Z,33.83
2019-04-10T07:22:08.668Z,27.95
2019-04-10T07:24:37.000Z,27.07
2019-04-10T07:27:05.285Z,27.67
2019-04-10T07:29:34.610Z,26.77
2019-04-10T07:32:07.862Z,27.35
2019-04-10T07:34:34.106Z,26.23
2019-04-10T07:37:02.653Z,26.70
2019-04-10T07:39:33.518Z,25.62
2019-04-10T07:42:02.091Z,25.80
2019-04-10T07:44:30.559Z,26.15
2019-04-10T07:47:00.692Z,26.25
2019-04-10T07:51:58.683Z,25.90
2019-04-10T07:54:27.388Z,26.17
2019-04-10T07:56:55.917Z,27.42
2019-04-10T07:59:25.046Z,25.90
2019-04-10T08:01:53.774Z,25.68
2019-04-10T08:04:22.988Z,24.87
2019-04-10T08:06:52.305Z,24.17
2019-04-10T08:09:20.956Z,24.82
2019-04-10T08:11:49.381Z,24.32
2019-04-10T08:14:17.666Z,25.27
2019-04-10T08:16:46.238Z,24.57
2019-04-10T08:19:14.969Z,24.80
2019-04-10T08:21:44.313Z,23.83
2019-04-10T08:24:13.527Z,24.32
2019-04-10T08:26:42.978Z,22.23
2019-04-10T08:29:12.097Z,22.65
2019-04-10T08:31:40.469Z,23.07
2019-04-10T08:34:08.919Z,23.38
2019-04-10T08:36:37.503Z,24.30
2019-04-10T08:39:06.910Z,21.57
2019-04-10T08:41:35.468Z,23.10
2019-04-10T08:44:04.417Z,23.12
2019-04-10T08:46:33.647Z,21.83
2019-04-10T08:49:03.497Z,24.20
2019-04-10T08:51:33.161Z,23.70
2019-04-10T08:54:02.636Z,23.38
2019-04-10T08:56:32.227Z,22.17
2019-04-10T08:59:01.093Z,21.45
2019-04-10T09:01:30.110Z,22.00
2019-04-10T09:03:59.426Z,22.13
2019-04-10T09:06:27.855Z,21.62
2019-04-10T09:08:57.170Z,22.25
2019-04-10T09:11:28.410Z,20.17
2019-04-10T09:13:56.915Z,21.23
2019-04-10T09:16:26.652Z,21.40
2019-04-10T09:18:55.767Z,19.87
2019-04-10T09:21:24.473Z,20.47
2019-04-10T09:23:55.715Z,19.73
2019-04-10T09:28:51.126Z,22.25
2019-04-10T09:31:19.932Z,21.65
2019-04-10T09:33:49.557Z,20.60
2019-04-10T09:36:18.371Z,21.62
2019-04-10T09:38:47.929Z,20.25
2019-04-10T09:41:17.380Z,20.80
2019-04-10T09:43:46.086Z,21.17
2019-04-10T09:46:14.494Z,21.65
2019-04-10T09:48:42.851Z,20.68
2019-04-10T09:51:11.775Z,21.57
2019-04-10T09:53:41.266Z,21.87
2019-04-10T09:56:11.522Z,21.27
2019-04-10T09:58:40.560Z,19.87
2019-04-10T10:01:10.450Z,21.83
2019-04-10T10:03:40.004Z,23.35
2019-04-10T10:06:22.027Z,22.07
2019-04-10T10:08:40.135Z,23.00
2019-04-10T10:11:09.602Z,22.42
2019-04-10T10:13:39.312Z,22.22
2019-04-10T10:18:37.390Z,22.37
2019-04-10T10:21:06.079Z,22.70
2019-04-10T10:23:35.995Z,22.35
2019-04-10T10:28:33.226Z,23.87
2019-04-10T10:31:02.279Z,22.65
2019-04-10T10:33:30.735Z,23.13
2019-04-10T10:35:59.859Z,24.55
2019-04-10T10:38:29.440Z,24.27
2019-04-10T10:40:59.027Z,24.02
2019-04-10T10:43:28.695Z,22.48
2019-04-10T10:45:57.257Z,23.02
2019-04-10T10:48:26.015Z,23.15
2019-04-10T10:50:54.642Z,22.58
2019-04-10T10:53:24.054Z,24.02
2019-04-10T10:55:53.870Z,23.02
2019-04-10T11:00:51.648Z,21.65
2019-04-10T11:03:20.422Z,21.77
2019-04-10T11:05:49.175Z,20.45
2019-04-10T11:08:17.913Z,20.65
2019-04-10T11:10:50.710Z,22.15
2019-04-10T11:15:46.125Z,21.25
2019-04-10T11:18:15.774Z,21.80
2019-04-10T11:20:44.280Z,21.35
2019-04-10T11:23:13.354Z,21.85
2019-04-10T11:25:41.865Z,20.20
2019-04-10T11:28:10.151Z,21.27
2019-04-10T11:30:38.767Z,20.60
2019-04-10T11:33:08.529Z,20.88
2019-04-10T11:35:37.404Z,20.50
2019-04-10T11:38:06.024Z,19.35
2019-04-10T11:40:35.024Z,20.25
2019-04-10T11:43:05.119Z,21.05
2019-04-10T11:45:41.321Z,20.43
2019-04-10T11:50:32.745Z,19.00
2019-04-10T11:55:37.988Z,19.35
2019-04-10T11:58:01.394Z,19.12
2019-04-10T12:03:10.225Z,20.72
2019-04-10T12:05:41.132Z,20.97
2019-04-10T12:08:33.626Z,20.68
2019-04-10T12:15:39.033Z,17.82
2019-04-10T12:18:08.567Z,19.70
2019-04-10T12:20:37.486Z,19.40
2019-04-10T12:23:05.904Z,19.82
2019-04-10T12:25:34.681Z,19.48
2019-04-10T12:28:03.346Z,19.15
2019-04-10T12:30:31.813Z,19.82
2019-04-10T12:33:01.091Z,18.62
2019-04-10T12:35:29.786Z,18.27
2019-04-10T12:38:02.851Z,18.40
2019-04-10T12:42:57.197Z,18.92
2019-04-10T12:45:26.417Z,19.05
2019-04-10T12:47:54.963Z,19.35
2019-04-10T12:50:23.325Z,19.07
2019-04-10T12:52:51.747Z,20.08
2019-04-10T12:55:20.565Z,20.27
2019-04-10T12:57:49.194Z,19.05
2019-04-10T13:00:20.033Z,19.52
2019-04-10T13:02:48.667Z,18.45
2019-04-10T13:05:16.990Z,20.10
2019-04-10T13:07:45.616Z,19.27
2019-04-10T13:10:14.937Z,19.52
2019-04-10T13:12:43.410Z,18.90
2019-04-10T13:15:13.081Z,18.15
2019-04-10T13:17:42.751Z,16.93
2019-04-10T13:20:13.508Z,17.50
2019-04-10T13:22:42.356Z,18.70
2019-04-10T13:25:12.306Z,17.80
2019-04-10T13:27:41.185Z,18.00
2019-04-10T13:30:13.060Z,17.23
2019-04-10T13:32:42.432Z,17.67
2019-04-10T13:35:11.162Z,17.87
2019-04-10T13:37:40.024Z,18.27
2019-04-10T13:40:08.391Z,16.52
2019-04-10T13:42:37.302Z,17.48
2019-04-10T13:45:07.307Z,18.12
2019-04-10T13:47:35.861Z,16.95
2019-04-10T13:50:06.423Z,17.45
2019-04-10T13:52:36.528Z,17.57
2019-04-10T13:57:34.762Z,17.30
2019-04-10T14:00:05.717Z,16.90
2019-04-10T14:02:36.016Z,17.70
2019-04-10T14:05:11.344Z,17.90
2019-04-10T14:07:40.296Z,18.92
2019-04-10T14:10:10.623Z,17.20
2019-04-10T14:12:39.553Z,17.95
2019-04-10T14:15:08.129Z,16.57
2019-04-10T14:17:37.621Z,17.65
2019-04-10T14:20:07.002Z,18.48
2019-04-10T14:22:37.949Z,18.20
2019-04-10T14:25:09.468Z,18.27
2019-04-10T14:27:38.556Z,19.40
2019-04-10T14:30:09.709Z,17.95
2019-04-10T14:32:37.990Z,18.37
2019-04-10T14:35:08.221Z,17.73
2019-04-10T14:37:37.915Z,18.60
2019-04-10T14:40:10.070Z,18.65
2019-04-10T14:42:38.575Z,19.25
2019-04-10T14:45:08.894Z,18.92
2019-04-10T14:47:39.181Z,19.05
2019-04-10T14:50:09.421Z,19.00
2019-04-10T14:52:39.490Z,19.07
2019-04-10T14:57:46.119Z,18.20
2019-04-10T15:00:26.542Z,19.27
2019-04-10T15:03:00.060Z,18.30
2019-04-10T15:05:27.941Z,19.77
2019-04-10T15:07:57.488Z,18.73
2019-04-10T15:10:28.458Z,18.32
2019-04-10T15:13:13.144Z,18.10
2019-04-10T15:15:39.192Z,17.90
2019-04-10T15:18:08.846Z,16.82
2019-04-10T15:20:37.893Z,17.80
2019-04-10T15:23:12.334Z,17.10
2019-04-10T15:25:41.605Z,17.27
2019-04-10T15:28:10.457Z,17.15
2019-04-10T15:30:39.140Z,16.57
2019-04-10T15:33:07.517Z,18.62
2019-04-10T15:35:36.068Z,17.12
2019-04-10T15:38:04.466Z,16.60
2019-04-10T15:40:32.804Z,17.50
2019-04-10T15:43:02.993Z,17.73
2019-04-10T15:45:32.492Z,18.23
2019-04-10T15:48:03.119Z,16.55
2019-04-10T15:50:32.591Z,17.57
2019-04-10T15:53:02.121Z,16.40
2019-04-10T15:55:32.041Z,17.62
2019-04-10T16:00:31.269Z,18.35
2019-04-10T16:03:00.670Z,18.57
2019-04-10T16:05:31.441Z,17.87
2019-04-10T16:08:00.779Z,17.10
2019-04-10T16:10:34.280Z,18.60
2019-04-10T16:13:22.536Z,19.20
2019-04-10T16:15:56.434Z,19.27
2019-04-10T16:18:28.914Z,18.25
2019-04-10T16:20:57.303Z,19.30
2019-04-10T16:23:31.287Z,18.77
2019-04-10T16:26:00.878Z,18.92
2019-04-10T16:28:29.734Z,19.90
2019-04-10T16:30:59.269Z,19.17
2019-04-10T16:33:27.922Z,19.80
2019-04-10T16:35:56.934Z,18.82
2019-04-10T16:38:26.716Z,18.92
2019-04-10T16:40:56.377Z,17.25
2019-04-10T16:43:26.344Z,18.85
2019-04-10T16:48:24.801Z,19.02
2019-04-10T16:50:54.039Z,18.48
2019-04-10T16:53:22.432Z,17.27
2019-04-10T16:55:54.535Z,17.60
2019-04-10T16:58:23.459Z,16.90
2019-04-10T17:00:51.972Z,16.32
2019-04-10T17:03:21.729Z,16.02
2019-04-10T17:05:50.247Z,17.77
2019-04-10T17:08:19.605Z,18.60
2019-04-10T17:10:51.012Z,18.55
2019-04-10T17:13:20.686Z,18.12
2019-04-10T17:15:50.320Z,19.82
2019-04-10T17:18:19.369Z,17.75
2019-04-10T17:20:48.801Z,17.55
2019-04-10T17:23:18.517Z,17.52
2019-04-10T17:25:48.710Z,19.23
2019-04-10T17:28:18.421Z,18.95
2019-04-10T17:30:46.907Z,19.35
2019-04-10T17:33:16.453Z,19.98
2019-04-10T17:35:45.612Z,19.10
2019-04-10T17:38:14.317Z,19.70
2019-04-10T17:40:49.918Z,19.37
2019-04-10T17:43:12.932Z,18.30
2019-04-10T17:45:42.665Z,18.05
2019-04-10T17:48:11.695Z,18.70
2019-04-10T17:50:50.377Z,18.87
2019-04-10T17:53:18.869Z,18.65
2019-04-10T17:55:49.553Z,19.90
2019-04-10T17:58:19.087Z,20.72
2019-04-10T18:00:49.543Z,19.82
2019-04-10T18:03:18.939Z,19.50
2019-04-10T18:05:51.505Z,21.52
2019-04-10T18:08:21.196Z,20.65
2019-04-10T18:10:53.011Z,20.43
2019-04-10T18:13:20.616Z,19.85
2019-04-10T18:15:50.451Z,20.88
2019-04-10T18:20:46.695Z,20.30
2019-04-10T18:23:15.509Z,22.27
2019-04-10T18:25:44.458Z,20.72
2019-04-10T18:28:13.723Z,19.55
2019-04-10T18:30:42.094Z,21.33
2019-04-10T18:33:10.542Z,20.55
2019-04-10T18:35:39.031Z,21.02
2019-04-10T18:38:08.948Z,22.48
2019-04-10T18:40:37.426Z,19.73
2019-04-10T18:43:05.833Z,20.37
2019-04-10T18:45:34.211Z,19.52
2019-04-10T18:48:02.806Z,21.48
2019-04-10T18:50:32.128Z,20.90
2019-04-10T18:53:01.572Z,21.55
2019-04-10T18:55:30.173Z,21.37
2019-04-10T18:57:59.154Z,21.20
2019-04-10T19:00:30.173Z,20.57
2019-04-10T19:03:09.599Z,20.57
2019-04-10T19:05:40.284Z,20.52
2019-04-10T19:08:11.219Z,21.95
2019-04-10T19:13:08.231Z,20.65
2019-04-10T19:15:37.160Z,22.45
2019-04-10T19:18:07.585Z,21.37
2019-04-10T19:20:36.104Z,23.15
2019-04-10T19:23:04.523Z,21.17
2019-04-10T19:25:34.731Z,22.85
2019-04-10T19:28:04.454Z,23.00
2019-04-10T19:30:43.880Z,24.12
2019-04-10T19:33:12.295Z,23.55
2019-04-10T19:35:41.381Z,22.17
2019-04-10T19:38:09.883Z,22.87
2019-04-10T19:40:38.752Z,23.18
2019-04-10T19:43:08.288Z,22.80
2019-04-10T19:45:36.828Z,23.55
2019-04-10T19:48:06.790Z,23.20
2019-04-10T19:53:04.750Z,22.95
2019-04-10T19:55:33.363Z,24.65
2019-04-10T19:58:01.817Z,24.98
2019-04-10T20:00:33.300Z,25.80
2019-04-10T20:03:01.646Z,24.60
2019-04-10T20:05:31.552Z,25.62
2019-04-10T20:10:29.605Z,22.27
2019-04-10T20:15:26.731Z,20.27
2019-04-10T20:17:55.315Z,21.70
2019-04-10T20:20:23.680Z,21.62
2019-04-10T20:22:53.482Z,22.20
2019-04-10T20:25:22.081Z,21.45
2019-04-10T20:27:52.057Z,20.85
2019-04-10T20:32:50.221Z,19.87
2019-04-10T20:35:20.214Z,19.95
2019-04-10T20:37:49.182Z,20.88
2019-04-10T20:40:19.136Z,20.40
2019-04-10T20:45:15.977Z,20.10
2019-04-10T20:47:44.295Z,20.62
2019-04-10T20:50:12.679Z,20.08
2019-04-10T20:52:41.081Z,20.32
2019-04-10T20:55:09.601Z,20.95
2019-04-10T20:57:38.060Z,20.62
2019-04-10T21:00:09.472Z,20.52
2019-04-10T21:02:38.794Z,20.95
2019-04-10T21:05:09.767Z,21.60
2019-04-10T21:10:08.545Z,23.00
2019-04-10T21:12:37.007Z,22.13
2019-04-10T21:15:09.071Z,22.87
2019-04-10T21:17:37.943Z,23.32
2019-04-10T21:20:13.146Z,23.55
2019-04-10T21:22:40.669Z,23.77
2019-04-10T21:25:10.298Z,22.42
2019-04-10T21:27:39.661Z,23.55
2019-04-10T21:30:17.790Z,22.58
2019-04-10T21:32:58.304Z,22.75
2019-04-10T21:35:31.231Z,22.20
2019-04-10T21:37:59.764Z,23.77
2019-04-10T21:40:28.668Z,23.02
2019-04-10T21:42:58.083Z,22.17
2019-04-10T21:45:27.038Z,22.95
2019-04-10T21:47:55.602Z,23.45
2019-04-10T21:50:24.743Z,24.25
2019-04-10T21:52:53.169Z,23.62
2019-04-10T21:55:22.460Z,23.80
2019-04-10T21:57:51.828Z,23.80
2019-04-10T22:00:21.865Z,23.18
2019-04-10T22:05:19.834Z,21.17
2019-04-10T22:07:50.317Z,21.87
2019-04-10T22:10:36.299Z,24.67
2019-04-10T22:13:05.889Z,22.65
2019-04-10T22:15:37.203Z,21.07
2019-04-10T22:18:07.319Z,20.92
2019-04-10T22:23:04.828Z,21.82
2019-04-10T22:25:36.067Z,22.82
2019-04-10T22:28:04.565Z,23.27
2019-04-10T22:30:33.392Z,24.75
2019-04-10T22:33:01.649Z,25.95
2019-04-10T22:35:31.323Z,24.35
2019-04-10T22:38:00.364Z,25.72
2019-04-10T22:40:29.111Z,25.25
2019-04-10T22:42:57.783Z,24.18
2019-04-10T22:45:29.223Z,23.87
2019-04-10T22:47:58.600Z,24.18
2019-04-10T22:50:27.636Z,22.67
2019-04-10T22:52:57.706Z,23.73
2019-04-10T22:55:26.673Z,24.67
2019-04-10T22:57:55.332Z,22.02
2019-04-10T23:00:33.483Z,22.32
2019-04-10T23:03:03.204Z,22.50
2019-04-10T23:08:01.275Z,20.25
2019-04-10T23:10:29.857Z,21.25
2019-04-10T23:13:02.870Z,20.68
2019-04-10T23:15:28.492Z,20.75
2019-04-10T23:17:57.261Z,21.15
2019-04-10T23:20:26.283Z,21.27
2019-04-10T23:22:55.009Z,22.10
2019-04-10T23:25:29.848Z,22.93
2019-04-10T23:27:58.904Z,20.75
2019-04-10T23:30:28.743Z,20.70
2019-04-10T23:32:57.573Z,21.57
2019-04-10T23:35:26.144Z,22.45
2019-04-10T23:37:55.211Z,20.85
2019-04-10T23:40:23.629Z,22.17
2019-04-10T23:43:02.657Z,20.97
2019-04-10T23:45:22.490Z,22.27
2019-04-10T23:47:51.137Z,21.90
2019-04-10T23:50:19.516Z,21.02
2019-04-10T23:52:47.986Z,21.45
2019-04-10T23:55:17.645Z,22.42
2019-04-10T23:57:46.671Z,22.50
